createdAt,value
2022-11-12T00:01:08.850Z,21.50
2022-11-12T00:03:36.387Z,19.50
2022-11-12T00:06:03.990Z,23.47
2022-11-12T00:08:31.524Z,22.30
2022-11-12T00:10:59.060Z,19.40
2022-11-12T00:13:26.611Z,21.00
2022-11-12T00:15:54.145Z,21.40
2022-11-12T00:18:21.680Z,21.67
2022-11-12T00:20:50.041Z,21.03
2022-11-12T00:23:17.578Z,18.97
2022-11-12T00:25:45.121Z,21.07
2022-11-12T00:28:12.676Z,26.40
2022-11-12T00:30:40.209Z,24.43
2022-11-12T00:33:07.768Z,26.80
2022-11-12T00:35:36.282Z,40.63
2022-11-12T00:38:03.806Z,28.53
2022-11-12T00:40:31.371Z,98.70
2022-11-12T00:42:58.895Z,31.40
2022-11-12T00:45:26.468Z,32.37
2022-11-12T00:47:54.773Z,24.27
2022-11-12T00:50:22.363Z,27.60
2022-11-12T00:52:50.503Z,31.43
2022-11-12T00:55:17.958Z,30.40
2022-11-12T00:57:45.512Z,34.67
2022-11-12T01:00:13.213Z,34.63
2022-11-12T01:02:45.291Z,27.77
2022-11-12T01:05:08.324Z,24.43
2022-11-12T01:07:35.850Z,21.00
2022-11-12T01:10:03.393Z,16.77
2022-11-12T01:12:31.731Z,33.80
2022-11-12T01:14:59.312Z,28.70
2022-11-12T01:17:26.836Z,25.30
2022-11-12T01:19:54.435Z,28.00
2022-11-12T01:22:21.983Z,16.83
2022-11-12T01:24:49.496Z,16.80
2022-11-12T01:27:17.063Z,12.87
2022-11-12T01:29:44.586Z,11.17
2022-11-12T01:32:12.891Z,12.97
2022-11-12T01:34:40.444Z,13.50
2022-11-12T01:37:07.979Z,12.40
2022-11-12T01:39:36.281Z,14.40
2022-11-12T01:42:03.865Z,12.90
2022-11-12T01:44:31.400Z,12.30
2022-11-12T01:47:08.192Z,9.63
2022-11-12T01:49:35.770Z,10.43
2022-11-12T01:52:03.294Z,7.83
2022-11-12T01:54:30.842Z,7.93
2022-11-12T01:56:58.525Z,7.87
2022-11-12T01:59:28.719Z,7.97
2022-11-12T02:01:56.248Z,8.53
2022-11-12T02:04:23.808Z,7.90
2022-11-12T02:06:51.392Z,8.67
2022-11-12T02:09:18.876Z,7.43
2022-11-12T02:11:46.460Z,9.93
2022-11-12T02:14:13.996Z,9.13
2022-11-12T02:16:41.544Z,9.57
2022-11-12T02:19:09.718Z,10.03
2022-11-12T02:21:37.242Z,8.47
2022-11-12T02:24:05.535Z,10.47
2022-11-12T02:26:33.077Z,9.70
2022-11-12T02:29:01.377Z,9.57
2022-11-12T02:31:28.907Z,11.50
2022-11-12T02:33:57.251Z,11.30
2022-11-12T02:36:24.789Z,11.13
2022-11-12T02:38:52.335Z,11.30
2022-11-12T02:41:19.912Z,12.50
2022-11-12T02:43:47.452Z,11.70
2022-11-12T02:46:14.978Z,11.73
2022-11-12T02:48:43.310Z,16.90
2022-11-12T02:51:10.846Z,12.87
2022-11-12T02:53:38.391Z,13.17
2022-11-12T02:56:06.711Z,13.00
2022-11-12T02:58:34.303Z,13.30
2022-11-12T03:01:01.901Z,13.97
2022-11-12T03:03:29.669Z,13.40
2022-11-12T03:05:57.240Z,14.53
2022-11-12T03:08:25.247Z,13.43
2022-11-12T03:10:52.339Z,10.77
2022-11-12T03:13:19.876Z,9.97
2022-11-12T03:15:48.186Z,12.63
2022-11-12T03:18:16.081Z,11.53
2022-11-12T03:20:43.629Z,9.90
2022-11-12T03:23:11.140Z,16.07
2022-11-12T03:25:40.154Z,12.47
2022-11-12T03:28:07.681Z,12.20
2022-11-12T03:30:35.206Z,11.60
2022-11-12T03:33:02.765Z,9.70
2022-11-12T03:35:30.283Z,10.73
2022-11-12T03:37:58.566Z,11.10
2022-11-12T03:40:26.133Z,12.60
2022-11-12T03:42:53.658Z,9.63
2022-11-12T03:45:21.940Z,9.50
2022-11-12T03:47:50.965Z,8.57
2022-11-12T03:50:18.488Z,8.07
2022-11-12T03:52:46.825Z,10.13
2022-11-12T03:55:14.389Z,8.77
2022-11-12T03:57:41.922Z,7.20
2022-11-12T04:00:09.691Z,8.80
2022-11-12T04:02:37.246Z,7.97
2022-11-12T04:05:22.686Z,7.93
2022-11-12T04:08:02.680Z,7.67
2022-11-12T04:10:30.205Z,8.10
2022-11-12T04:13:16.812Z,8.13
2022-11-12T04:15:45.115Z,7.80
2022-11-12T04:18:30.988Z,7.70
2022-11-12T04:21:16.444Z,10.87
2022-11-12T04:23:44.775Z,8.77
2022-11-12T04:26:24.361Z,6.97
2022-11-12T04:29:10.888Z,7.20
2022-11-12T04:31:38.457Z,6.53
2022-11-12T04:34:25.110Z,9.17
2022-11-12T04:36:52.602Z,8.37
2022-11-12T04:39:20.138Z,14.33
2022-11-12T04:42:06.115Z,11.37
2022-11-12T04:44:51.534Z,6.90
2022-11-12T04:47:19.084Z,7.50
2022-11-12T04:49:47.394Z,9.37
2022-11-12T04:52:14.927Z,6.83
2022-11-12T04:54:42.478Z,9.37
2022-11-12T04:57:10.776Z,6.63
2022-11-12T04:59:38.300Z,7.03
2022-11-12T05:02:06.652Z,7.87
2022-11-12T05:04:34.184Z,7.57
2022-11-12T05:07:01.779Z,8.17
2022-11-12T05:09:29.316Z,8.27
2022-11-12T05:11:56.840Z,8.03
2022-11-12T05:14:24.374Z,9.83
2022-11-12T05:16:53.854Z,9.50
2022-11-12T05:19:21.377Z,8.27
2022-11-12T05:21:51.361Z,14.35
2022-11-12T05:24:40.391Z,9.00
2022-11-12T05:26:47.209Z,15.90
2022-11-12T05:29:14.735Z,13.93
2022-11-12T05:31:42.338Z,12.03
2022-11-12T05:34:09.875Z,12.93
2022-11-12T05:36:38.160Z,11.67
2022-11-12T05:39:05.725Z,9.70
2022-11-12T05:41:57.942Z,9.30
2022-11-12T05:44:00.790Z,10.67
2022-11-12T05:46:29.337Z,8.68
2022-11-12T05:48:56.862Z,9.18
2022-11-12T05:51:25.158Z,8.67
2022-11-12T05:53:52.721Z,9.67
2022-11-12T05:56:20.268Z,9.30
2022-11-12T05:58:48.578Z,7.93
2022-11-12T06:01:16.146Z,9.80
2022-11-12T06:03:43.681Z,7.10
2022-11-12T06:06:11.205Z,8.90
2022-11-12T06:08:39.646Z,6.83
2022-11-12T06:11:07.199Z,6.20
2022-11-12T06:13:35.806Z,8.50
2022-11-12T06:16:03.370Z,6.70
2022-11-12T06:18:30.915Z,8.43
2022-11-12T06:21:19.624Z,11.17
2022-11-12T06:23:47.169Z,7.67
2022-11-12T06:26:15.453Z,6.60
2022-11-12T06:28:43.089Z,7.70
2022-11-12T06:31:10.558Z,11.47
2022-11-12T06:33:38.086Z,12.37
2022-11-12T06:36:05.720Z,8.20
2022-11-12T06:38:33.322Z,9.40
2022-11-12T06:41:00.837Z,10.63
2022-11-12T06:43:29.309Z,11.83
2022-11-12T06:45:59.736Z,14.85
2022-11-12T06:48:27.492Z,13.00
2022-11-12T06:50:54.873Z,13.93
2022-11-12T06:53:22.429Z,11.20
2022-11-12T06:55:49.981Z,8.47
2022-11-12T06:58:17.948Z,8.20
2022-11-12T07:00:45.497Z,58.80
2022-11-12T07:03:13.044Z,16.93
2022-11-12T07:05:40.629Z,68.13
2022-11-12T07:08:08.175Z,14.93
2022-11-12T07:10:35.696Z,6.27
2022-11-12T07:13:04.012Z,6.73
2022-11-12T07:15:31.548Z,15.67
2022-11-12T07:17:59.870Z,26.83
2022-11-12T07:20:27.443Z,37.00
2022-11-12T07:22:54.976Z,66.37
2022-11-12T07:25:22.521Z,15.48
2022-11-12T07:27:50.088Z,19.40
2022-11-12T07:30:17.620Z,8.10
2022-11-12T07:32:51.669Z,8.27
2022-11-12T07:35:13.624Z,10.87
2022-11-12T07:37:41.166Z,7.73
2022-11-12T07:40:08.782Z,7.87
2022-11-12T07:42:37.443Z,8.40
2022-11-12T07:45:05.223Z,9.97
2022-11-12T07:47:33.533Z,14.83
2022-11-12T07:50:01.106Z,18.80
2022-11-12T07:52:28.637Z,10.90
2022-11-12T07:54:56.168Z,10.33
2022-11-12T07:57:24.570Z,48.80
2022-11-12T07:59:52.109Z,45.03
2022-11-12T08:02:20.418Z,7.17
2022-11-12T08:04:48.302Z,14.57
2022-11-12T08:07:15.945Z,6.73
2022-11-12T08:09:44.096Z,9.03
2022-11-12T08:12:12.447Z,9.00
2022-11-12T08:14:39.985Z,15.17
2022-11-12T08:17:07.520Z,8.93
2022-11-12T08:19:35.190Z,8.00
2022-11-12T08:22:02.715Z,19.30
2022-11-12T08:24:30.257Z,25.47
2022-11-12T08:26:58.599Z,30.17
2022-11-12T08:29:26.135Z,14.00
2022-11-12T08:31:53.646Z,11.50
2022-11-12T08:34:22.935Z,6.83
2022-11-12T08:36:50.343Z,6.47
2022-11-12T08:39:17.890Z,6.53
2022-11-12T08:41:45.499Z,9.37
2022-11-12T08:44:13.024Z,8.17
2022-11-12T08:46:40.567Z,7.60
2022-11-12T08:49:08.141Z,8.77
2022-11-12T08:51:35.680Z,7.43
2022-11-12T08:54:03.214Z,9.40
2022-11-12T08:56:30.782Z,10.70
2022-11-12T08:58:59.074Z,11.73
2022-11-12T09:01:26.660Z,10.50
2022-11-12T09:03:54.187Z,6.17
2022-11-12T09:06:22.475Z,10.13
2022-11-12T09:08:49.998Z,4.20
2022-11-12T09:11:17.918Z,6.53
2022-11-12T09:13:45.514Z,6.87
2022-11-12T09:16:16.482Z,7.80
2022-11-12T09:18:45.462Z,6.17
2022-11-12T09:21:13.003Z,4.63
2022-11-12T09:23:40.544Z,6.35
2022-11-12T09:26:09.108Z,6.57
2022-11-12T09:28:36.589Z,8.37
2022-11-12T09:31:04.139Z,8.17
2022-11-12T09:33:32.007Z,5.50
2022-11-12T09:36:02.391Z,6.40
2022-11-12T09:38:30.678Z,10.17
2022-11-12T09:41:04.199Z,6.20
2022-11-12T09:43:40.668Z,6.20
2022-11-12T09:46:27.113Z,6.57
2022-11-12T09:48:40.988Z,6.00
2022-11-12T09:51:11.654Z,8.30
2022-11-12T09:53:57.561Z,9.47
2022-11-12T09:56:25.076Z,8.03
2022-11-12T09:58:52.621Z,10.10
2022-11-12T10:01:41.363Z,8.85
2022-11-12T10:04:23.500Z,7.70
2022-11-12T10:06:51.155Z,6.63
2022-11-12T10:09:21.244Z,8.00
2022-11-12T10:12:13.474Z,6.37
2022-11-12T10:15:24.605Z,5.43
2022-11-12T10:18:16.160Z,5.17
2022-11-12T10:20:49.474Z,5.40
2022-11-12T10:23:23.547Z,8.37
2022-11-12T10:25:51.082Z,8.27
2022-11-12T10:28:21.539Z,7.43
2022-11-12T10:30:49.112Z,8.93
2022-11-12T10:33:16.636Z,8.13
2022-11-12T10:35:44.180Z,8.32
2022-11-12T10:38:16.521Z,8.63
2022-11-12T10:40:43.986Z,7.97
2022-11-12T10:43:18.007Z,7.63
2022-11-12T10:45:45.611Z,7.80
2022-11-12T10:48:27.476Z,7.13
2022-11-12T10:50:53.437Z,7.40
2022-11-12T10:53:32.698Z,7.53
2022-11-12T10:56:01.082Z,7.82
2022-11-12T10:58:29.738Z,7.07
2022-11-12T11:00:59.945Z,6.53
2022-11-12T11:03:30.674Z,9.07
2022-11-12T11:06:04.209Z,11.30
2022-11-12T11:08:44.417Z,7.67
2022-11-12T11:11:14.612Z,7.87
2022-11-12T11:13:42.139Z,7.83
2022-11-12T11:16:15.427Z,8.63
2022-11-12T11:18:42.947Z,8.27
2022-11-12T11:21:40.742Z,5.30
2022-11-12T11:24:38.926Z,7.97
2022-11-12T11:27:18.892Z,8.23
2022-11-12T11:30:06.562Z,8.27
2022-11-12T11:33:04.315Z,7.10
2022-11-12T11:35:50.138Z,6.33
2022-11-12T11:38:36.117Z,7.60
2022-11-12T11:41:18.322Z,6.83
2022-11-12T11:43:51.878Z,8.03
2022-11-12T11:46:37.661Z,9.23
2022-11-12T11:49:17.988Z,7.90
2022-11-12T11:51:51.765Z,9.30
2022-11-12T11:54:53.210Z,8.13
2022-11-12T11:57:23.271Z,7.40
2022-11-12T12:00:08.998Z,7.47
2022-11-12T12:02:51.283Z,8.87
2022-11-12T12:05:37.254Z,8.77
2022-11-12T12:08:13.904Z,7.70
2022-11-12T12:11:07.441Z,8.17
2022-11-12T12:13:29.775Z,8.30
2022-11-12T12:16:34.864Z,9.10
2022-11-12T12:19:07.835Z,9.67
2022-11-12T12:21:35.529Z,8.98
2022-11-12T12:24:09.791Z,9.20
2022-11-12T12:26:47.268Z,9.13
2022-11-12T12:29:23.762Z,7.17
2022-11-12T12:31:52.099Z,8.47
2022-11-12T12:34:25.283Z,8.03
2022-11-12T12:36:54.615Z,8.73
2022-11-12T12:39:30.834Z,9.00
2022-11-12T12:42:05.308Z,9.13
2022-11-12T12:44:41.457Z,7.67
2022-11-12T12:47:09.041Z,9.33
2022-11-12T12:49:36.594Z,7.83
2022-11-12T12:52:04.130Z,7.53
2022-11-12T12:54:38.140Z,8.90
2022-11-12T12:57:05.674Z,10.40
2022-11-12T12:59:33.217Z,9.37
2022-11-12T13:02:00.794Z,8.37
2022-11-12T13:04:50.800Z,9.23
2022-11-12T13:07:18.486Z,10.07
2022-11-12T13:09:45.940Z,8.13
2022-11-12T13:12:13.472Z,9.00
2022-11-12T13:14:41.053Z,9.57
2022-11-12T13:17:08.613Z,9.83
2022-11-12T13:19:36.155Z,9.77
2022-11-12T13:22:18.832Z,9.70
2022-11-12T13:25:04.754Z,12.83
2022-11-12T13:27:41.268Z,12.30
2022-11-12T13:30:14.489Z,9.73
2022-11-12T13:32:44.607Z,8.55
2022-11-12T13:35:30.796Z,8.55
2022-11-12T13:38:01.128Z,7.47
2022-11-12T13:40:53.721Z,8.43
2022-11-12T13:43:29.702Z,7.60
2022-11-12T13:46:11.896Z,9.73
2022-11-12T13:48:44.913Z,8.23
2022-11-12T13:51:40.228Z,9.27
2022-11-12T13:54:34.992Z,9.60
2022-11-12T13:57:20.405Z,8.03
2022-11-12T13:59:48.694Z,8.07
2022-11-12T14:02:25.912Z,11.53
2022-11-12T14:04:53.454Z,10.80
2022-11-12T14:07:51.547Z,11.37
2022-11-12T14:10:33.787Z,18.30
2022-11-12T14:13:25.965Z,13.80
2022-11-12T14:16:24.378Z,13.17
2022-11-12T14:19:16.099Z,11.03
2022-11-12T14:21:43.634Z,10.23
2022-11-12T14:24:11.187Z,11.52
2022-11-12T14:26:38.772Z,10.47
2022-11-12T14:29:06.306Z,11.17
2022-11-12T14:31:33.859Z,11.35
2022-11-12T14:34:20.233Z,11.40
2022-11-12T14:36:47.784Z,11.40
2022-11-12T14:39:15.350Z,12.47
2022-11-12T14:41:42.943Z,12.20
2022-11-12T14:44:13.418Z,22.50
2022-11-12T14:46:47.054Z,15.53
2022-11-12T14:49:17.742Z,18.63
2022-11-12T14:51:47.899Z,16.20
2022-11-12T14:54:15.466Z,17.70
2022-11-12T14:56:45.706Z,17.67
2022-11-12T14:59:13.241Z,14.83
2022-11-12T15:02:21.697Z,14.47
2022-11-12T15:04:13.215Z,13.97
2022-11-12T15:06:40.779Z,15.70
2022-11-12T15:09:08.288Z,13.53
2022-11-12T15:11:47.659Z,11.53
2022-11-12T15:14:21.230Z,12.63
2022-11-12T15:16:49.529Z,12.03
2022-11-12T15:19:25.910Z,12.80
2022-11-12T15:21:55.944Z,12.97
2022-11-12T15:24:35.232Z,13.83
2022-11-12T15:27:03.530Z,12.53
2022-11-12T15:29:33.927Z,10.87
2022-11-12T15:32:13.941Z,11.60
2022-11-12T15:34:41.902Z,12.03
2022-11-12T15:37:10.264Z,12.50
2022-11-12T15:39:40.763Z,11.97
2022-11-12T15:42:14.934Z,11.60
2022-11-12T15:44:42.437Z,13.63
2022-11-12T15:47:10.972Z,15.27
2022-11-12T15:49:38.496Z,19.33
2022-11-12T15:52:06.058Z,15.33
2022-11-12T15:54:38.155Z,14.93
2022-11-12T15:57:01.175Z,15.90
2022-11-12T15:59:28.726Z,15.40
2022-11-12T16:01:56.319Z,14.63
2022-11-12T16:04:23.859Z,16.07
2022-11-12T16:06:51.418Z,14.00
2022-11-12T16:09:19.773Z,14.80
2022-11-12T16:11:48.094Z,12.03
2022-11-12T16:14:15.618Z,14.13
2022-11-12T16:16:43.222Z,18.27
2022-11-12T16:19:16.001Z,11.53
2022-11-12T16:21:43.535Z,14.37
2022-11-12T16:24:11.104Z,13.90
2022-11-12T16:26:38.634Z,13.80
2022-11-12T16:29:12.346Z,12.57
2022-11-12T16:31:40.836Z,15.13
2022-11-12T16:34:08.371Z,13.07
2022-11-12T16:36:35.915Z,15.87
2022-11-12T16:39:05.262Z,13.07
2022-11-12T16:41:32.709Z,15.23
2022-11-12T16:44:00.246Z,11.07
2022-11-12T16:46:31.813Z,12.97
2022-11-12T16:48:59.347Z,12.23
2022-11-12T16:51:27.643Z,14.27
2022-11-12T16:53:55.208Z,9.73
2022-11-12T16:56:22.744Z,10.73
2022-11-12T16:58:51.065Z,12.30
2022-11-12T17:01:27.651Z,11.20
2022-11-12T17:03:55.884Z,11.67
2022-11-12T17:06:23.429Z,10.60
2022-11-12T17:08:54.442Z,12.00
2022-11-12T17:11:21.975Z,13.20
2022-11-12T17:13:49.529Z,14.83
2022-11-12T17:16:17.114Z,23.30
2022-11-12T17:18:44.645Z,22.07
2022-11-12T17:21:12.174Z,16.25
2022-11-12T17:23:39.765Z,12.73
2022-11-12T17:26:07.302Z,14.90
2022-11-12T17:28:34.832Z,14.27
2022-11-12T17:31:03.184Z,10.90
2022-11-12T17:33:30.793Z,12.80
2022-11-12T17:36:00.946Z,13.05
2022-11-12T17:38:28.537Z,10.80
2022-11-12T17:40:59.535Z,13.50
2022-11-12T17:43:27.167Z,11.03
2022-11-12T17:45:54.588Z,12.60
2022-11-12T17:48:22.104Z,11.77
2022-11-12T17:50:49.629Z,12.70
2022-11-12T17:53:19.192Z,15.63
2022-11-12T17:55:46.737Z,13.40
2022-11-12T17:58:14.262Z,13.43
2022-11-12T18:00:41.846Z,10.57
2022-11-12T18:03:09.376Z,12.33
2022-11-12T18:05:37.677Z,9.60
2022-11-12T18:08:06.144Z,11.50
2022-11-12T18:10:33.666Z,15.83
2022-11-12T18:13:01.218Z,19.03
2022-11-12T18:15:28.794Z,17.63
2022-11-12T18:17:57.098Z,21.25
2022-11-12T18:20:24.632Z,18.83
2022-11-12T18:22:53.891Z,16.70
2022-11-12T18:25:21.421Z,15.97
2022-11-12T18:27:48.970Z,19.57
2022-11-12T18:30:19.490Z,16.00
2022-11-12T18:32:44.830Z,20.33
2022-11-12T18:35:12.359Z,15.83
2022-11-12T18:37:40.787Z,14.17
2022-11-12T18:40:08.451Z,13.47
2022-11-12T18:42:35.985Z,15.97
2022-11-12T18:45:03.593Z,12.98
2022-11-12T18:47:31.152Z,10.80
2022-11-12T18:49:58.818Z,13.57
2022-11-12T18:52:26.454Z,13.97
2022-11-12T18:54:53.833Z,14.40
2022-11-12T18:57:21.368Z,20.67
2022-11-12T18:59:48.942Z,25.27
2022-11-12T19:02:16.467Z,61.42
2022-11-12T19:04:45.543Z,38.25
2022-11-12T19:07:11.614Z,27.07
2022-11-12T19:09:39.115Z,64.40
2022-11-12T19:12:06.641Z,32.33
2022-11-12T19:14:34.291Z,60.50
2022-11-12T19:17:01.815Z,45.87
2022-11-12T19:19:29.363Z,35.80
2022-11-12T19:21:56.934Z,35.93
2022-11-12T19:24:24.488Z,23.60
2022-11-12T19:26:52.023Z,30.80
2022-11-12T19:29:19.608Z,35.17
2022-11-12T19:31:47.147Z,35.47
2022-11-12T19:34:14.837Z,33.00
2022-11-12T19:36:42.451Z,65.40
2022-11-12T19:39:09.943Z,55.33
2022-11-12T19:41:37.469Z,45.83
2022-11-12T19:44:05.821Z,69.17
2022-11-12T19:46:33.348Z,34.40
2022-11-12T19:49:00.873Z,64.07
2022-11-12T19:51:28.436Z,61.43
2022-11-12T19:53:55.974Z,40.43
2022-11-12T19:56:24.285Z,42.17
2022-11-12T19:58:51.860Z,45.73
2022-11-12T20:01:19.529Z,53.37
2022-11-12T20:03:46.921Z,36.53
2022-11-12T20:06:14.514Z,41.13
2022-11-12T20:08:42.041Z,36.30
2022-11-12T20:11:10.356Z,66.07
2022-11-12T20:13:37.935Z,97.27
2022-11-12T20:16:23.857Z,67.63
2022-11-12T20:18:49.820Z,81.90
2022-11-12T20:21:13.612Z,56.97
2022-11-12T20:23:41.129Z,75.87
2022-11-12T20:26:09.476Z,81.97
2022-11-12T20:28:37.017Z,84.45
2022-11-12T20:31:04.547Z,54.53
2022-11-12T20:33:32.134Z,42.97
2022-11-12T20:36:02.892Z,68.60
2022-11-12T20:38:30.643Z,90.70
2022-11-12T20:40:58.073Z,79.78
2022-11-12T20:43:29.165Z,81.20
2022-11-12T20:45:53.134Z,45.17
2022-11-12T20:48:20.689Z,40.83
2022-11-12T20:51:09.565Z,80.97
2022-11-12T20:53:15.758Z,84.40
2022-11-12T20:55:43.370Z,33.57
2022-11-12T20:58:10.890Z,97.33
2022-11-12T21:00:38.440Z,61.30
2022-11-12T21:03:06.029Z,76.73
2022-11-12T21:05:33.565Z,51.17
2022-11-12T21:08:01.132Z,66.97
2022-11-12T21:10:28.686Z,56.73
2022-11-12T21:12:56.226Z,70.73
2022-11-12T21:15:23.749Z,84.40
2022-11-12T21:17:51.335Z,45.47
2022-11-12T21:20:19.629Z,56.93
2022-11-12T21:22:47.174Z,65.63
2022-11-12T21:25:15.365Z,49.13
2022-11-12T21:27:43.864Z,34.47
2022-11-12T21:30:11.435Z,70.57
2022-11-12T21:32:39.010Z,44.43
2022-11-12T21:35:06.681Z,61.78
2022-11-12T21:37:34.230Z,60.55
2022-11-12T21:40:02.816Z,36.77
2022-11-12T21:42:30.355Z,31.80
2022-11-12T21:44:57.879Z,35.03
2022-11-12T21:47:25.463Z,35.60
2022-11-12T21:49:52.989Z,53.10
2022-11-12T21:52:20.514Z,51.17
2022-11-12T21:54:48.091Z,44.60
2022-11-12T21:57:18.884Z,55.70
2022-11-12T21:59:43.957Z,48.60
2022-11-12T22:02:14.496Z,62.97
2022-11-12T22:04:41.971Z,79.73
2022-11-12T22:07:09.560Z,71.00
2022-11-12T22:09:37.100Z,60.95
2022-11-12T22:12:04.688Z,34.37
2022-11-12T22:14:32.997Z,65.30
2022-11-12T22:17:00.570Z,38.53
2022-11-12T22:19:28.097Z,41.13
2022-11-12T22:21:55.628Z,61.10
2022-11-12T22:24:24.253Z,41.60
2022-11-12T22:26:51.785Z,41.73
2022-11-12T22:29:20.244Z,60.20
2022-11-12T22:31:47.812Z,25.87
2022-11-12T22:34:15.335Z,69.33
2022-11-12T22:36:50.614Z,38.73
2022-11-12T22:39:12.539Z,23.30
2022-11-12T22:41:40.415Z,37.70
2022-11-12T22:44:09.871Z,96.23
2022-11-12T22:46:38.406Z,34.77
2022-11-12T22:49:06.968Z,26.80
2022-11-12T22:51:37.605Z,34.90
2022-11-12T22:54:05.760Z,24.40
2022-11-12T22:56:38.392Z,92.83
2022-11-12T22:59:06.178Z,59.00
2022-11-12T23:01:40.982Z,79.47
2022-11-12T23:04:07.433Z,52.97
2022-11-12T23:06:36.047Z,50.17
2022-11-12T23:09:04.917Z,29.07
2022-11-12T23:11:33.507Z,18.77
2022-11-12T23:14:03.109Z,20.20
2022-11-12T23:16:32.919Z,15.77
2022-11-12T23:19:01.703Z,20.60
2022-11-12T23:21:30.287Z,26.83
2022-11-12T23:24:00.123Z,16.10
2022-11-12T23:26:28.661Z,18.57
2022-11-12T23:28:56.453Z,24.23
2022-11-12T23:31:24.172Z,34.03
2022-11-12T23:33:54.310Z,38.10
2022-11-12T23:36:23.484Z,21.17
2022-11-12T23:38:52.389Z,19.95
2022-11-12T23:41:21.577Z,19.07
2022-11-12T23:43:55.600Z,22.48
2022-11-12T23:46:23.930Z,19.50
2022-11-12T23:48:51.485Z,21.90
2022-11-12T23:51:19.010Z,25.20
2022-11-12T23:53:46.600Z,36.30
2022-11-12T23:56:14.144Z,50.30
2022-11-12T23:58:41.680Z,38.97
